Time;durP1;ratioP1;P1;durP2;ratioP2;P2;SDS_P1;SDS_P2;PMS_P1;PMS_P2;Temp;Humidity;BMP_temperature;BMP_pressure;BME280_temperature;BME280_humidity;BME280_pressure;Samples;Min_cycle;Max_cycle;Signal;HPM_P1;HPM_P2
2022/01/13 00:00:29;;;;;;;28.60;25.90;;;0.70;57.90;;;;;;4980763;28;20383;-83
2022/01/13 00:02:55;;;;;;;26.52;23.92;;;0.60;58.00;;;;;;4976841;28;20453;-83
2022/01/13 00:05:27;;;;;;;26.10;23.50;;;0.70;58.10;;;;;;4979150;28;20220;-83
2022/01/13 00:07:55;;;;;;;28.20;25.42;;;0.70;57.90;;;;;;4977228;28;20233;-84
2022/01/13 00:10:22;;;;;;;28.33;25.50;;;0.70;57.60;;;;;;4977779;28;20602;-84
2022/01/13 00:12:55;;;;;;;28.02;25.23;;;0.70;57.00;;;;;;4977920;28;20321;-85
2022/01/13 00:15:25;;;;;;;26.98;24.27;;;0.80;57.70;;;;;;4980802;28;20256;-84
2022/01/13 00:23:39;;;;;;;27.00;24.20;;;0.60;57.80;;;;;;4979676;28;20228;-84
2022/01/13 00:25:37;;;;;;;28.73;25.95;;;0.60;57.40;;;;;;4977744;28;20256;-84
2022/01/13 00:28:12;;;;;;;27.67;24.98;;;0.60;57.40;;;;;;4976548;28;20228;-82
2022/01/13 00:30:38;;;;;;;28.38;25.48;;;0.70;58.00;;;;;;4977663;28;20226;-84
2022/01/13 00:33:04;;;;;;;29.17;26.30;;;0.70;57.90;;;;;;4976929;28;20229;-84
2022/01/13 00:35:30;;;;;;;27.77;25.07;;;0.60;58.00;;;;;;4976717;28;20241;-84
2022/01/13 00:37:55;;;;;;;27.67;25.03;;;0.70;57.60;;;;;;4979154;28;20456;-84
2022/01/13 00:40:21;;;;;;;27.43;24.70;;;0.60;57.90;;;;;;4977351;28;20701;-83
2022/01/13 00:42:47;;;;;;;28.70;26.00;;;0.60;57.40;;;;;;4976651;28;20307;-83
2022/01/13 00:45:14;;;;;;;26.93;24.33;;;0.70;57.80;;;;;;4977012;28;20251;-83
2022/01/13 00:47:41;;;;;;;27.08;24.30;;;0.70;57.90;;;;;;4976995;28;20280;-83
2022/01/13 00:50:08;;;;;;;28.02;25.23;;;0.80;57.60;;;;;;4976241;28;20229;-84
2022/01/13 00:52:33;;;;;;;28.55;25.55;;;0.80;57.80;;;;;;4976819;28;20517;-83
2022/01/13 00:55:04;;;;;;;27.63;24.90;;;0.90;57.30;;;;;;4976490;28;20259;-83
2022/01/13 00:57:31;;;;;;;28.77;25.80;;;0.80;57.50;;;;;;4976949;28;20449;-83
2022/01/13 00:59:58;;;;;;;26.77;24.08;;;0.90;57.10;;;;;;4977253;28;20597;-83
2022/01/13 01:02:24;;;;;;;26.52;23.88;;;0.80;57.10;;;;;;4976768;28;20220;-84
2022/01/13 01:04:50;;;;;;;28.20;25.33;;;0.90;57.20;;;;;;4976080;28;20253;-84
2022/01/13 01:07:16;;;;;;;27.13;24.50;;;0.90;56.70;;;;;;4976580;28;20599;-83
2022/01/13 01:09:48;;;;;;;27.80;24.90;;;0.90;57.10;;;;;;4976560;28;20229;-83
2022/01/13 01:12:15;;;;;;;30.58;27.40;;;0.90;57.70;;;;;;4976500;28;20240;-83
2022/01/13 01:14:46;;;;;;;28.75;25.95;;;0.90;56.60;;;;;;4976324;28;20684;-83
2022/01/13 01:17:17;;;;;;;27.75;25.02;;;0.90;57.10;;;;;;4976092;28;20364;-83
2022/01/13 01:19:47;;;;;;;29.50;26.60;;;0.80;57.10;;;;;;4976387;28;20230;-83
2022/01/13 01:27:32;;;;;;;30.00;27.10;;;0.80;57.10;;;;;;4976875;28;20717;-83
2022/01/13 01:30:04;;;;;;;29.07;26.13;;;0.80;56.90;;;;;;4983854;28;20513;-84
2022/01/13 01:32:32;;;;;;;28.35;25.63;;;0.80;56.80;;;;;;4996031;28;20448;-84
2022/01/13 01:35:01;;;;;;;27.60;24.77;;;0.90;57.40;;;;;;4995419;28;20239;-83
2022/01/13 01:37:29;;;;;;;28.17;25.13;;;0.80;57.20;;;;;;4995984;28;20228;-84
2022/01/13 01:39:57;;;;;;;29.33;26.33;;;0.90;57.50;;;;;;4995772;28;20231;-84
2022/01/13 01:42:24;;;;;;;27.52;24.73;;;1.00;57.50;;;;;;4995270;28;20224;-84
2022/01/13 01:44:53;;;;;;;31.67;28.33;;;1.00;57.00;;;;;;4994785;28;20224;-83
2022/01/13 01:47:20;;;;;;;30.07;27.00;;;1.00;57.10;;;;;;4994517;28;20236;-83
2022/01/13 01:49:52;;;;;;;30.25;27.35;;;1.00;56.80;;;;;;4995527;28;20732;-83
2022/01/13 01:52:18;;;;;;;28.40;25.52;;;1.00;57.40;;;;;;4995419;28;20262;-83
2022/01/13 01:54:45;;;;;;;28.63;25.83;;;0.90;56.50;;;;;;4994154;28;20609;-82
2022/01/13 01:57:12;;;;;;;28.90;26.00;;;1.00;57.00;;;;;;4992843;28;20493;-82
2022/01/13 01:59:40;;;;;;;28.30;25.58;;;1.00;56.50;;;;;;4993290;28;20225;-82
2022/01/13 02:02:08;;;;;;;29.30;26.50;;;0.90;57.40;;;;;;4993910;28;20782;-82
2022/01/13 02:04:35;;;;;;;27.80;24.98;;;0.90;57.50;;;;;;4992952;28;20538;-82
2022/01/13 02:07:04;;;;;;;27.73;24.92;;;0.90;57.50;;;;;;4993822;28;20331;-84
2022/01/13 02:09:30;;;;;;;27.52;24.88;;;1.00;57.90;;;;;;4995409;28;20611;-83
2022/01/13 02:12:02;;;;;;;29.13;26.15;;;1.00;58.00;;;;;;4994914;28;20276;-83
2022/01/13 02:17:11;;;;;;;28.30;25.53;;;1.00;58.10;;;;;;4996381;28;20336;-83
2022/01/13 02:19:39;;;;;;;26.92;23.42;;;1.00;57.40;;;;;;4994548;28;20291;-83
2022/01/13 02:22:05;;;;;;;28.08;25.38;;;1.00;57.90;;;;;;4995478;28;20262;-82
2022/01/13 02:24:32;;;;;;;26.30;23.55;;;1.10;57.40;;;;;;4995815;28;20507;-84
2022/01/13 02:26:58;;;;;;;25.88;23.15;;;1.10;57.80;;;;;;4997929;28;20749;-83
2022/01/13 02:29:24;;;;;;;27.05;24.35;;;1.10;57.90;;;;;;4999687;28;20256;-84
2022/01/13 02:31:51;;;;;;;26.38;23.80;;;1.10;58.20;;;;;;4999043;28;20311;-83
2022/01/13 02:34:18;;;;;;;27.50;24.80;;;1.20;57.70;;;;;;4999456;28;20730;-83
2022/01/13 02:36:44;;;;;;;27.95;25.25;;;1.20;57.10;;;;;;4999060;28;20460;-83
2022/01/13 02:39:10;;;;;;;28.05;25.25;;;1.10;56.80;;;;;;4999850;28;20227;-84
2022/01/13 02:41:35;;;;;;;26.97;24.47;;;1.10;56.80;;;;;;5000656;28;20313;-84
2022/01/13 02:44:02;;;;;;;28.47;25.57;;;1.20;57.20;;;;;;5002329;28;20567;-83
2022/01/13 02:52:19;;;;;;;28.05;25.35;;;1.20;56.90;;;;;;4999841;28;20710;-83
2022/01/13 02:54:46;;;;;;;28.48;25.52;;;1.10;57.70;;;;;;4999201;28;20297;-83
2022/01/13 02:57:12;;;;;;;26.73;24.02;;;1.10;57.40;;;;;;5002021;28;20233;-84
2022/01/13 02:59:37;;;;;;;28.03;25.23;;;1.00;57.00;;;;;;4999532;28;20240;-84
2022/01/13 03:02:03;;;;;;;29.53;26.53;;;0.90;57.30;;;;;;4999302;28;20699;-84
2022/01/13 03:04:28;;;;;;;29.13;26.23;;;0.90;57.50;;;;;;4999482;28;20317;-84
2022/01/13 03:06:54;;;;;;;30.10;27.07;;;0.80;58.20;;;;;;4999928;28;20850;-83
2022/01/13 03:09:21;;;;;;;31.03;27.93;;;0.80;58.00;;;;;;4999797;28;20532;-84
2022/01/13 03:11:47;;;;;;;30.33;27.30;;;0.80;58.40;;;;;;4999230;28;20235;-84
2022/01/13 03:14:13;;;;;;;29.42;26.60;;;0.90;58.20;;;;;;4999637;28;20315;-84
2022/01/13 03:16:41;;;;;;;30.05;27.25;;;0.80;57.80;;;;;;4999013;28;20228;-84
2022/01/13 03:19:06;;;;;;;29.90;26.90;;;0.80;58.20;;;;;;4998703;28;20231;-84
2022/01/13 03:21:32;;;;;;;32.27;29.17;;;0.80;58.10;;;;;;4999159;28;20223;-83
2022/01/13 03:23:58;;;;;;;29.70;26.77;;;0.90;58.00;;;;;;5000562;28;20456;-84
2022/01/13 03:26:24;;;;;;;31.67;28.37;;;0.90;58.50;;;;;;4998736;28;20452;-83
2022/01/13 03:28:51;;;;;;;31.60;28.45;;;0.90;59.00;;;;;;4998789;28;20459;-83
2022/01/13 03:31:23;;;;;;;30.88;27.70;;;0.80;59.00;;;;;;4999110;28;20317;-83
2022/01/13 03:33:53;;;;;;;30.10;26.98;;;0.80;59.40;;;;;;4999311;28;20231;-85
2022/01/13 03:36:19;;;;;;;30.05;27.05;;;0.80;58.90;;;;;;4999172;28;20572;-84
2022/01/13 03:38:46;;;;;;;30.58;27.58;;;0.80;58.90;;;;;;5004170;28;20228;-83
2022/01/13 03:41:12;;;;;;;29.30;26.38;;;0.80;59.30;;;;;;5014457;28;20632;-83
2022/01/13 03:43:38;;;;;;;29.15;26.35;;;0.90;59.00;;;;;;5012735;28;20225;-84
2022/01/13 03:46:05;;;;;;;27.77;24.80;;;0.80;58.80;;;;;;4999601;28;20248;-84
2022/01/13 03:48:31;;;;;;;28.08;25.35;;;0.80;59.50;;;;;;4999814;28;20219;-84
2022/01/13 03:50:57;;;;;;;28.63;25.73;;;0.70;59.20;;;;;;4997950;28;20269;-83
2022/01/13 03:53:28;;;;;;;28.67;25.77;;;0.70;59.70;;;;;;4997698;28;20485;-84
2022/01/13 03:56:31;;;;;;;28.05;25.45;;;0.80;59.60;;;;;;4995719;28;20233;-83
2022/01/13 03:59:35;;;;;;;28.27;25.38;;;0.80;60.00;;;;;;4996914;28;20214;-84
2022/01/13 04:02:13;;;;;;;25.58;23.05;;;0.80;59.90;;;;;;4996674;28;20518;-83
2022/01/13 04:04:45;;;;;;;26.80;23.90;;;0.80;59.70;;;;;;4998239;28;21797;-83
2022/01/13 04:07:12;;;;;;;26.30;23.80;;;0.80;59.10;;;;;;4999986;28;20229;-83
2022/01/13 04:09:38;;;;;;;27.83;25.17;;;0.80;59.50;;;;;;4997367;28;20224;-83
2022/01/13 04:12:06;;;;;;;28.83;26.10;;;0.90;59.30;;;;;;4997571;28;20666;-83
2022/01/13 04:14:43;;;;;;;26.98;24.23;;;0.90;59.00;;;;;;4997956;28;20615;-84
2022/01/13 04:17:14;;;;;;;28.23;25.38;;;0.90;59.00;;;;;;4997453;28;20228;-84
2022/01/13 04:19:41;;;;;;;28.10;25.20;;;0.90;59.40;;;;;;4998081;28;20225;-84
2022/01/13 04:22:08;;;;;;;26.13;23.52;;;1.00;59.10;;;;;;4997485;28;20595;-84
2022/01/13 04:24:36;;;;;;;26.63;24.13;;;1.10;59.00;;;;;;4997849;28;20227;-84
2022/01/13 04:27:02;;;;;;;27.92;24.52;;;1.10;58.90;;;;;;5000171;28;20236;-84
2022/01/13 04:29:35;;;;;;;29.15;26.20;;;1.10;58.90;;;;;;5000370;28;20605;-84
2022/01/13 04:32:01;;;;;;;25.02;22.67;;;1.10;59.00;;;;;;4997774;28;20636;-84
2022/01/13 04:34:26;;;;;;;26.52;23.83;;;1.00;58.40;;;;;;4998582;28;20228;-85
2022/01/13 04:36:58;;;;;;;26.00;23.50;;;1.10;59.20;;;;;;4998067;28;20233;-83
2022/01/13 04:39:25;;;;;;;26.48;23.77;;;1.10;59.20;;;;;;4994318;28;20457;-83
2022/01/13 04:41:52;;;;;;;25.60;23.05;;;1.10;58.40;;;;;;4998322;28;20236;-83
2022/01/13 04:44:20;;;;;;;27.67;24.33;;;1.10;59.00;;;;;;4998690;28;20635;-83
2022/01/13 04:46:46;;;;;;;25.70;23.30;;;1.10;59.20;;;;;;4998524;28;20229;-84
2022/01/13 04:49:13;;;;;;;28.33;25.70;;;1.10;58.60;;;;;;4999059;28;20236;-83
2022/01/13 04:51:40;;;;;;;27.42;24.50;;;1.10;59.00;;;;;;4999123;28;20239;-83
2022/01/13 04:54:06;;;;;;;26.77;24.17;;;1.10;58.70;;;;;;4999642;28;20246;-84
2022/01/13 04:57:05;;;;;;;28.40;25.42;;;1.00;58.70;;;;;;4999910;28;20600;-83
2022/01/13 04:59:30;;;;;;;28.48;25.88;;;1.00;59.10;;;;;;5000952;28;20267;-84
2022/01/13 05:02:00;;;;;;;27.85;24.88;;;0.90;59.10;;;;;;4999181;28;20290;-82
2022/01/13 05:04:25;;;;;;;28.00;25.20;;;0.80;59.00;;;;;;4997998;28;20331;-83
2022/01/13 05:06:51;;;;;;;27.70;24.83;;;0.90;59.60;;;;;;4996726;28;20792;-82
2022/01/13 05:09:17;;;;;;;28.40;25.50;;;0.80;59.40;;;;;;4997320;28;20322;-81
2022/01/13 05:11:42;;;;;;;28.47;25.57;;;0.80;60.00;;;;;;4997556;28;20307;-81
2022/01/13 05:14:08;;;;;;;26.33;23.53;;;0.80;60.00;;;;;;4997279;28;20221;-81
2022/01/13 05:16:53;;;;;;;28.97;26.10;;;0.80;59.50;;;;;;5000817;28;20239;-82
2022/01/13 05:19:24;;;;;;;29.90;27.00;;;0.70;59.40;;;;;;4995657;28;20234;-81
2022/01/13 05:24:26;;;;;;;29.85;26.83;;;0.70;60.00;;;;;;4999077;28;20325;-80
2022/01/13 05:26:52;;;;;;;28.85;26.05;;;0.80;59.70;;;;;;4997951;28;20290;-80
2022/01/13 05:29:20;;;;;;;28.48;25.67;;;0.70;59.40;;;;;;4998264;28;20227;-80
2022/01/13 05:31:49;;;;;;;26.90;24.23;;;0.70;60.00;;;;;;4997400;28;20309;-81
2022/01/13 05:34:17;;;;;;;30.58;27.45;;;0.70;59.50;;;;;;4997702;28;20221;-81
2022/01/13 05:36:43;;;;;;;30.45;27.42;;;0.70;59.70;;;;;;4998070;28;20240;-82
2022/01/13 05:39:10;;;;;;;27.30;24.40;;;0.70;60.30;;;;;;4993840;28;20225;-81
2022/01/13 05:41:36;;;;;;;28.45;25.65;;;0.70;59.70;;;;;;4998181;28;20473;-80
2022/01/13 05:44:04;;;;;;;28.33;25.50;;;0.80;60.20;;;;;;4999744;28;20255;-82
2022/01/13 05:46:30;;;;;;;29.15;26.30;;;0.70;60.20;;;;;;5000572;28;20185;-79
2022/01/13 05:48:56;;;;;;;29.13;26.10;;;0.70;60.30;;;;;;4998074;28;21529;-82
2022/01/13 05:51:24;;;;;;;28.23;25.20;;;0.70;59.70;;;;;;4998525;28;20705;-81
2022/01/13 05:53:49;;;;;;;27.75;24.88;;;0.80;60.20;;;;;;4997904;28;20234;-83
2022/01/13 05:56:16;;;;;;;28.33;25.57;;;0.90;60.20;;;;;;4997069;28;20309;-82
2022/01/13 05:58:42;;;;;;;28.08;25.17;;;0.90;59.50;;;;;;4997511;28;20266;-82
2022/01/13 06:01:08;;;;;;;29.10;26.20;;;0.80;60.00;;;;;;4998018;28;20259;-82
2022/01/13 06:03:33;;;;;;;28.58;25.95;;;0.80;59.60;;;;;;5002022;28;20448;-82
2022/01/13 06:05:59;;;;;;;26.63;24.03;;;0.70;59.30;;;;;;5002054;28;20232;-82
2022/01/13 06:08:25;;;;;;;28.77;25.87;;;0.70;59.60;;;;;;5001880;28;20317;-82
2022/01/13 06:10:50;;;;;;;29.50;26.23;;;0.70;59.70;;;;;;5000502;28;20327;-82
2022/01/13 06:13:17;;;;;;;28.50;25.63;;;0.70;59.40;;;;;;5000520;28;20271;-82
2022/01/13 06:15:43;;;;;;;27.42;24.83;;;0.70;60.40;;;;;;5002497;28;20576;-82
2022/01/13 06:18:13;;;;;;;27.75;25.05;;;0.80;60.10;;;;;;5000728;28;20244;-81
2022/01/13 06:20:40;;;;;;;27.05;24.35;;;0.90;60.10;;;;;;5000759;28;20249;-81
2022/01/13 06:23:07;;;;;;;27.65;24.85;;;0.80;59.20;;;;;;5001434;28;20610;-81
2022/01/13 06:25:33;;;;;;;28.52;25.35;;;0.80;59.70;;;;;;5001894;28;20700;-80
2022/01/13 06:27:59;;;;;;;28.13;25.35;;;0.90;59.90;;;;;;5002493;28;20219;-82
2022/01/13 06:30:25;;;;;;;29.57;26.57;;;0.90;59.80;;;;;;5001686;28;20217;-81
2022/01/13 06:32:50;;;;;;;27.23;24.30;;;0.90;59.90;;;;;;5000788;28;20254;-81
2022/01/13 06:35:16;;;;;;;26.90;23.97;;;1.00;59.70;;;;;;5001497;28;20220;-81
2022/01/13 06:37:42;;;;;;;28.00;24.17;;;1.00;59.60;;;;;;5004170;28;20221;-81
2022/01/13 06:40:09;;;;;;;28.27;25.37;;;0.90;59.40;;;;;;5001208;28;20650;-81
2022/01/13 06:42:34;;;;;;;29.20;26.35;;;1.00;60.70;;;;;;5002203;28;20245;-81
2022/01/13 06:45:00;;;;;;;26.23;23.60;;;1.00;59.50;;;;;;5001201;28;20252;-81
2022/01/13 06:47:26;;;;;;;28.47;25.77;;;1.10;59.50;;;;;;5000732;28;20217;-80
2022/01/13 06:49:52;;;;;;;26.00;23.40;;;1.00;59.20;;;;;;4999283;28;20290;-81
2022/01/13 06:52:17;;;;;;;25.77;23.20;;;1.10;59.20;;;;;;4999781;28;20950;-79
2022/01/13 06:54:44;;;;;;;25.83;23.23;;;1.10;59.10;;;;;;4999884;28;20579;-80
2022/01/13 06:57:10;;;;;;;29.38;24.83;;;1.00;58.50;;;;;;5000028;28;20230;-81
2022/01/13 06:59:35;;;;;;;27.47;24.80;;;1.00;59.40;;;;;;4999404;28;20229;-80
2022/01/13 07:02:01;;;;;;;29.73;25.27;;;1.00;58.70;;;;;;4999255;28;20505;-80
2022/01/13 07:04:28;;;;;;;29.95;26.90;;;0.90;59.50;;;;;;4999465;28;20231;-81
2022/01/13 07:06:54;;;;;;;28.92;25.83;;;1.00;59.70;;;;;;4998011;28;20419;-81
2022/01/13 07:09:21;;;;;;;28.50;25.70;;;1.00;59.10;;;;;;4998550;28;20537;-81
2022/01/13 07:11:47;;;;;;;26.42;23.38;;;1.00;59.10;;;;;;4998252;28;20225;-81
2022/01/13 07:14:14;;;;;;;26.50;23.92;;;1.10;59.20;;;;;;4998628;28;20232;-81
2022/01/13 07:16:40;;;;;;;29.20;26.20;;;1.00;59.10;;;;;;4998347;28;20660;-81
2022/01/13 07:19:11;;;;;;;27.08;24.15;;;1.00;59.10;;;;;;4998335;28;20224;-81
2022/01/13 07:21:39;;;;;;;32.20;28.75;;;1.00;59.30;;;;;;4998399;28;20229;-81
2022/01/13 07:24:05;;;;;;;26.90;24.15;;;1.00;60.20;;;;;;4998853;28;20244;-80
2022/01/13 07:26:31;;;;;;;28.58;25.60;;;1.10;59.20;;;;;;4999805;28;20229;-83
2022/01/13 07:28:56;;;;;;;26.23;23.60;;;1.00;59.10;;;;;;5000013;28;20306;-83
2022/01/13 07:31:22;;;;;;;27.70;25.17;;;0.90;59.30;;;;;;4999562;28;20219;-82
2022/01/13 07:33:48;;;;;;;29.77;26.23;;;1.00;61.00;;;;;;5000202;28;20239;-83
2022/01/13 07:36:14;;;;;;;29.37;26.50;;;1.10;60.00;;;;;;5000742;28;20593;-83
2022/01/13 07:38:39;;;;;;;27.92;25.02;;;1.00;59.50;;;;;;4999966;28;20254;-82
2022/01/13 07:41:05;;;;;;;29.23;26.17;;;1.00;59.10;;;;;;4999383;28;20446;-82
2022/01/13 07:43:31;;;;;;;28.87;25.20;;;1.10;59.20;;;;;;5000539;28;20688;-83
2022/01/13 07:46:00;;;;;;;27.23;24.42;;;1.10;59.20;;;;;;5001444;28;20335;-83
2022/01/13 07:48:25;;;;;;;28.23;25.38;;;1.10;59.20;;;;;;5000612;28;20234;-82
2022/01/13 07:50:52;;;;;;;28.03;25.13;;;1.20;59.20;;;;;;4999948;28;20225;-83
2022/01/13 07:53:19;;;;;;;27.25;24.42;;;1.20;59.30;;;;;;5006081;28;20182;-83
2022/01/13 07:55:45;;;;;;;26.67;23.83;;;1.10;59.20;;;;;;5004117;28;20250;-83
2022/01/13 07:58:10;;;;;;;27.95;25.17;;;1.10;59.60;;;;;;5003645;28;20228;-83
2022/01/13 08:00:37;;;;;;;28.50;25.47;;;1.20;59.60;;;;;;5002331;28;20715;-83
2022/01/13 08:03:02;;;;;;;27.20;24.50;;;1.30;59.50;;;;;;4999533;28;20957;-82
2022/01/13 08:05:28;;;;;;;21.73;19.47;;;1.20;59.30;;;;;;4999752;28;20253;-83
2022/01/13 08:07:54;;;;;;;23.23;21.00;;;1.30;60.60;;;;;;5000351;28;20228;-83
2022/01/13 08:10:20;;;;;;;22.43;20.03;;;1.30;59.40;;;;;;4999717;28;20285;-83
2022/01/13 08:12:45;;;;;;;26.10;23.00;;;1.40;60.40;;;;;;5001802;28;20238;-82
2022/01/13 08:15:14;;;;;;;24.70;22.20;;;1.40;60.30;;;;;;5001737;28;20228;-82
2022/01/13 08:20:31;;;;;;;24.17;20.50;;;1.40;60.00;;;;;;5000683;28;20700;-84
2022/01/13 08:22:57;;;;;;;21.98;19.67;;;1.50;60.30;;;;;;4999779;28;20224;-84
2022/01/13 08:25:23;;;;;;;22.88;20.00;;;1.50;59.90;;;;;;4999368;28;20684;-84
2022/01/13 08:27:51;;;;;;;21.95;19.75;;;1.60;60.70;;;;;;5001665;28;20224;-83
2022/01/13 08:30:17;;;;;;;18.15;16.35;;;1.60;60.30;;;;;;4991091;28;20377;-84
2022/01/13 08:32:43;;;;;;;15.83;14.33;;;1.70;60.00;;;;;;4980020;28;20304;-85
2022/01/13 08:35:09;;;;;;;15.57;14.03;;;1.70;60.40;;;;;;4979498;28;20217;-85
2022/01/13 08:37:35;;;;;;;13.38;12.18;;;1.70;60.30;;;;;;4979947;28;20264;-86
2022/01/13 08:40:03;;;;;;;14.93;13.43;;;1.70;60.40;;;;;;4980022;28;20233;-85
2022/01/13 08:42:29;;;;;;;14.38;13.05;;;1.70;60.10;;;;;;4981487;28;20231;-85
2022/01/13 08:44:55;;;;;;;11.40;10.30;;;1.60;60.80;;;;;;4981177;28;20240;-85
2022/01/13 08:47:21;;;;;;;13.32;11.82;;;1.50;61.90;;;;;;4980701;28;20225;-85
2022/01/13 08:49:46;;;;;;;18.10;14.93;;;1.50;61.70;;;;;;4983313;28;20339;-85
2022/01/13 08:52:12;;;;;;;20.60;12.67;;;1.60;61.80;;;;;;4981222;28;20233;-83
2022/01/13 08:54:38;;;;;;;22.77;13.77;;;1.50;61.40;;;;;;4980998;28;20280;-84
2022/01/13 08:57:06;;;;;;;13.77;12.37;;;1.60;61.60;;;;;;4982684;28;20668;-84
2022/01/13 08:59:32;;;;;;;16.88;13.30;;;1.60;61.70;;;;;;4983428;28;20229;-83
2022/01/13 09:01:57;;;;;;;15.50;14.00;;;1.50;61.90;;;;;;4982851;28;20236;-85
2022/01/13 09:04:23;;;;;;;17.33;15.60;;;1.50;61.80;;;;;;4981674;28;20229;-84
2022/01/13 09:06:49;;;;;;;16.53;14.77;;;1.50;61.40;;;;;;4982610;28;20228;-85
2022/01/13 09:09:14;;;;;;;18.47;16.57;;;1.40;61.40;;;;;;4984084;28;20271;-85
2022/01/13 09:11:41;;;;;;;17.23;15.40;;;1.40;61.80;;;;;;4984337;28;20237;-85
2022/01/13 09:14:07;;;;;;;17.17;15.57;;;1.50;61.20;;;;;;4998078;28;20904;-84
2022/01/13 09:16:41;;;;;;;16.60;15.00;;;1.50;60.80;;;;;;4981996;28;20323;-84
2022/01/13 09:19:12;;;;;;;18.38;16.02;;;1.50;60.50;;;;;;4981570;28;20233;-85
2022/01/13 09:21:42;;;;;;;19.35;17.33;;;1.50;59.60;;;;;;4981508;28;20233;-85
2022/01/13 09:24:10;;;;;;;19.45;17.42;;;1.50;59.60;;;;;;4983272;28;20228;-85
2022/01/13 09:26:36;;;;;;;19.23;17.33;;;1.60;58.60;;;;;;4981168;28;20232;-84
2022/01/13 09:29:04;;;;;;;18.27;16.58;;;1.70;59.20;;;;;;4980228;28;20263;-85
2022/01/13 09:31:31;;;;;;;20.92;18.90;;;1.70;58.90;;;;;;4982394;28;20238;-84
2022/01/13 09:33:57;;;;;;;19.67;17.60;;;1.60;58.80;;;;;;4980594;28;20299;-84
2022/01/13 09:36:23;;;;;;;21.08;18.88;;;1.60;58.90;;;;;;4985911;28;20229;-84
2022/01/13 09:38:49;;;;;;;20.00;17.47;;;1.70;59.30;;;;;;4985505;28;20235;-84
2022/01/13 09:41:16;;;;;;;19.85;17.75;;;1.80;58.40;;;;;;4985364;28;20953;-85
2022/01/13 09:43:44;;;;;;;19.67;17.73;;;1.60;58.80;;;;;;4985520;28;20257;-85
2022/01/13 09:46:10;;;;;;;23.17;20.80;;;1.70;58.40;;;;;;4984098;28;20634;-85
2022/01/13 09:48:39;;;;;;;23.93;21.60;;;1.90;56.30;;;;;;4982895;28;20445;-85
2022/01/13 09:51:06;;;;;;;20.70;18.63;;;1.90;55.60;;;;;;4981568;28;20451;-85
2022/01/13 09:53:32;;;;;;;23.23;20.17;;;1.90;55.20;;;;;;4985405;28;20280;-82
2022/01/13 09:55:58;;;;;;;20.20;18.30;;;1.90;54.10;;;;;;4992570;28;20277;-84
2022/01/13 09:58:23;;;;;;;20.80;18.80;;;1.90;54.00;;;;;;4987935;28;21007;-83
2022/01/13 10:00:49;;;;;;;22.50;20.23;;;1.90;54.60;;;;;;4983842;28;20309;-83
2022/01/13 10:03:17;;;;;;;22.43;20.03;;;2.00;53.90;;;;;;4984556;28;20248;-85
2022/01/13 10:05:52;;;;;;;23.00;20.90;;;1.90;54.20;;;;;;4985009;28;20229;-84
2022/01/13 10:08:20;;;;;;;22.67;20.37;;;2.00;54.10;;;;;;4986393;28;20279;-84
2022/01/13 10:10:46;;;;;;;22.88;20.33;;;2.10;53.80;;;;;;4984536;28;20457;-84
2022/01/13 10:13:15;;;;;;;24.33;22.00;;;2.10;52.90;;;;;;4986360;28;20236;-84
2022/01/13 10:18:44;;;;;;;20.65;18.65;;;2.10;53.20;;;;;;4986439;28;20288;-84
2022/01/13 10:21:12;;;;;;;23.13;20.65;;;2.10;53.20;;;;;;4987790;28;20227;-84
2022/01/13 10:24:09;;;;;;;23.42;20.92;;;2.00;54.00;;;;;;4987312;28;20225;-83
2022/01/13 10:26:36;;;;;;;20.80;18.70;;;2.10;54.30;;;;;;4987533;28;20700;-83
2022/01/13 10:29:07;;;;;;;21.60;19.60;;;2.10;52.70;;;;;;4986961;28;20326;-84
2022/01/13 10:31:45;;;;;;;20.63;18.43;;;1.80;54.50;;;;;;4984076;28;20871;-84
2022/01/13 10:34:29;;;;;;;21.67;19.40;;;1.80;53.80;;;;;;4984698;28;20506;-84
2022/01/13 10:37:07;;;;;;;22.50;19.90;;;1.90;54.80;;;;;;4981844;28;20232;-83
2022/01/13 10:39:54;;;;;;;22.20;20.10;;;2.00;55.00;;;;;;4986533;28;20487;-83
2022/01/13 10:45:20;;;;;;;20.67;18.70;;;2.00;55.30;;;;;;4987351;28;20456;-83
2022/01/13 10:47:57;;;;;;;18.63;16.92;;;2.00;54.00;;;;;;4986708;28;20221;-84
2022/01/13 10:50:38;;;;;;;19.17;17.07;;;2.00;54.70;;;;;;4984680;28;20603;-85
2022/01/13 10:53:07;;;;;;;21.05;18.83;;;1.90;54.30;;;;;;4988281;28;20468;-83
2022/01/13 10:55:37;;;;;;;24.20;19.43;;;2.00;55.30;;;;;;4986590;28;20296;-84
2022/01/13 10:58:03;;;;;;;20.13;18.23;;;2.00;54.50;;;;;;4988086;28;20467;-83
2022/01/13 11:00:32;;;;;;;20.40;18.20;;;2.00;54.60;;;;;;4987160;28;20456;-84
2022/01/13 11:03:11;;;;;;;20.80;18.80;;;2.10;55.00;;;;;;4986280;28;20448;-84
2022/01/13 11:05:45;;;;;;;23.37;20.97;;;2.10;54.70;;;;;;4983018;28;20437;-83
2022/01/13 11:08:11;;;;;;;22.77;20.57;;;2.10;53.90;;;;;;4982349;28;20440;-82
2022/01/13 11:10:46;;;;;;;21.87;19.73;;;2.10;55.40;;;;;;4981347;28;20511;-84
2022/01/13 11:13:19;;;;;;;21.40;19.20;;;2.10;54.70;;;;;;4984121;28;20449;-84
2022/01/13 11:15:50;;;;;;;20.65;18.52;;;2.10;54.60;;;;;;4981920;28;20527;-84
2022/01/13 11:18:19;;;;;;;21.17;19.00;;;2.20;55.00;;;;;;4982962;28;20232;-82
2022/01/13 11:20:47;;;;;;;19.83;17.73;;;2.20;53.90;;;;;;4981373;28;20449;-85
2022/01/13 11:23:14;;;;;;;21.80;19.73;;;2.20;54.30;;;;;;4982518;28;20455;-84
2022/01/13 11:25:40;;;;;;;19.97;17.97;;;2.20;53.70;;;;;;4983196;28;20441;-83
2022/01/13 11:28:07;;;;;;;20.77;18.20;;;2.30;55.10;;;;;;4981304;28;20519;-84
2022/01/13 11:30:33;;;;;;;23.50;20.00;;;2.40;53.90;;;;;;4984496;28;20460;-85
2022/01/13 11:32:59;;;;;;;21.43;19.23;;;2.40;54.10;;;;;;4982367;28;20452;-85
2022/01/13 11:35:30;;;;;;;19.50;17.50;;;2.40;53.60;;;;;;4983389;28;20807;-84
2022/01/13 11:37:57;;;;;;;23.43;18.40;;;2.50;53.70;;;;;;4981351;28;20226;-84
2022/01/13 11:40:26;;;;;;;22.57;20.30;;;2.50;53.10;;;;;;4981105;28;20531;-84
2022/01/13 11:42:51;;;;;;;20.00;17.90;;;2.60;53.20;;;;;;4981188;28;20452;-84
2022/01/13 11:45:19;;;;;;;21.93;19.10;;;2.50;52.80;;;;;;4980720;28;20452;-83
2022/01/13 11:47:45;;;;;;;20.47;18.10;;;2.60;53.10;;;;;;4980701;28;20524;-85
2022/01/13 11:50:22;;;;;;;21.83;18.50;;;2.60;53.00;;;;;;4980797;28;20532;-82
2022/01/13 11:52:53;;;;;;;23.25;19.45;;;2.60;52.10;;;;;;4978758;28;21113;-85
2022/01/13 11:55:26;;;;;;;21.33;19.23;;;2.60;53.10;;;;;;4981668;28;20250;-80
2022/01/13 11:58:09;;;;;;;19.70;17.77;;;2.70;53.50;;;;;;4981287;28;20470;-87
2022/01/13 12:00:36;;;;;;;18.80;16.80;;;2.70;53.40;;;;;;4981384;28;20467;-84
2022/01/13 12:03:32;;;;;;;20.43;18.17;;;2.80;52.80;;;;;;4981003;28;20445;-85
2022/01/13 12:05:59;;;;;;;19.83;17.93;;;2.70;53.10;;;;;;4983539;28;20866;-84
2022/01/13 12:08:40;;;;;;;19.17;17.13;;;2.70;52.60;;;;;;5000043;28;20448;-82
2022/01/13 12:11:07;;;;;;;24.20;16.67;;;2.70;52.50;;;;;;5000238;28;20471;-83
2022/01/13 12:13:40;;;;;;;18.67;16.77;;;2.70;52.40;;;;;;5018711;28;20413;-84
2022/01/13 12:16:08;;;;;;;19.07;17.03;;;2.80;53.10;;;;;;5001979;28;20468;-83
2022/01/13 12:18:43;;;;;;;20.03;17.93;;;2.80;53.40;;;;;;5017110;28;20452;-83
2022/01/13 12:21:34;;;;;;;19.53;17.70;;;2.90;53.00;;;;;;5001195;28;21000;-83
2022/01/13 12:24:00;;;;;;;18.60;16.63;;;2.90;54.00;;;;;;5016951;28;20580;-84
2022/01/13 12:26:37;;;;;;;22.50;18.17;;;3.00;53.40;;;;;;5016674;28;20485;-84
2022/01/13 12:29:14;;;;;;;18.10;16.17;;;3.00;52.80;;;;;;5000495;28;20466;-84
2022/01/13 12:31:55;;;;;;;19.03;17.03;;;3.10;52.10;;;;;;4999358;28;20456;-83
2022/01/13 12:34:43;;;;;;;17.33;15.30;;;3.10;52.00;;;;;;5017154;28;20491;-84
2022/01/13 12:37:24;;;;;;;17.00;15.07;;;3.10;52.50;;;;;;5016329;28;20471;-83
2022/01/13 12:39:58;;;;;;;18.10;15.60;;;3.10;51.20;;;;;;5018890;28;20456;-83
2022/01/13 12:42:31;;;;;;;23.70;17.07;;;3.10;52.10;;;;;;5017035;28;20447;-83
2022/01/13 12:47:42;;;;;;;19.70;17.60;;;3.30;52.30;;;;;;5001626;28;20526;-84
2022/01/13 12:50:25;;;;;;;17.50;15.73;;;3.30;51.70;;;;;;5017163;28;20543;-85
2022/01/13 12:52:55;;;;;;;20.17;16.97;;;3.30;52.20;;;;;;5016780;28;20574;-83
2022/01/13 12:55:21;;;;;;;18.17;16.33;;;3.40;52.70;;;;;;5019481;28;20451;-84
2022/01/13 12:57:51;;;;;;;19.10;17.10;;;3.40;52.60;;;;;;5017256;28;20471;-85
2022/01/13 13:00:19;;;;;;;18.83;16.93;;;3.50;53.10;;;;;;5017896;28;20228;-84
2022/01/13 13:02:53;;;;;;;19.50;17.50;;;3.50;52.40;;;;;;5019248;28;20449;-85
2022/01/13 13:05:37;;;;;;;17.57;15.70;;;3.50;52.40;;;;;;5021851;28;20428;-85
2022/01/13 13:08:03;;;;;;;19.13;16.43;;;3.50;50.90;;;;;;5017467;28;20452;-83
2022/01/13 13:10:29;;;;;;;17.70;15.90;;;3.50;51.00;;;;;;5018842;28;20492;-85
2022/01/13 13:12:57;;;;;;;17.37;15.57;;;3.50;50.10;;;;;;5017644;28;21321;-84
2022/01/13 13:17:49;;;;;;;17.87;14.90;;;3.70;51.10;;;;;;5000776;28;20444;-83